createdAt,value
2023-02-19T00:01:53.513Z,100023.48
2023-02-19T00:04:24.653Z,100023.36
2023-02-19T00:06:53.764Z,100021.67
2023-02-19T00:09:22.044Z,100019.93
2023-02-19T00:11:50.516Z,100015.63
2023-02-19T00:14:21.781Z,100015.38
2023-02-19T00:16:50.980Z,100014.44
2023-02-19T00:19:21.477Z,100012.42
2023-02-19T00:21:54.094Z,100005.10
2023-02-19T00:24:22.954Z,100012.23
2023-02-19T00:26:51.343Z,100003.57
2023-02-19T00:29:21.603Z,100001.97
2023-02-19T00:31:49.936Z,99997.83
2023-02-19T00:34:18.518Z,99998.18
2023-02-19T00:36:46.788Z,100006.92
2023-02-19T00:39:18.684Z,100006.98
2023-02-19T00:41:47.364Z,99999.22
2023-02-19T00:44:16.247Z,99998.97
2023-02-19T00:46:47.813Z,100005.66
2023-02-19T00:49:22.455Z,100000.44
2023-02-19T00:51:53.160Z,100005.13
2023-02-19T00:54:22.918Z,100001.54
2023-02-19T00:56:52.163Z,100000.10
2023-02-19T00:59:21.357Z,99998.09
2023-02-19T01:01:50.076Z,99991.44
2023-02-19T01:04:18.939Z,99985.30
2023-02-19T01:06:49.127Z,99983.55
2023-02-19T01:09:17.529Z,99980.59
2023-02-19T01:11:46.416Z,99980.42
2023-02-19T01:14:14.804Z,99976.31
2023-02-19T01:16:43.230Z,99974.44
2023-02-19T01:19:12.589Z,99969.11
2023-02-19T01:21:42.208Z,99964.04
2023-02-19T01:24:11.802Z,99961.78
2023-02-19T01:26:40.881Z,99959.80
2023-02-19T01:29:09.790Z,99959.09
2023-02-19T01:31:41.233Z,99962.88
2023-02-19T01:34:12.305Z,99962.95
2023-02-19T01:36:41.063Z,99961.64
2023-02-19T01:39:10.773Z,99954.66
2023-02-19T01:41:40.908Z,99947.09
2023-02-19T01:44:29.444Z,99944.01
2023-02-19T01:46:58.950Z,99937.02
2023-02-19T01:49:48.999Z,99933.56
2023-02-19T01:52:36.637Z,99928.48
2023-02-19T01:55:08.076Z,99921.04
2023-02-19T01:57:42.232Z,99917.75
2023-02-19T02:00:14.320Z,99912.95
2023-02-19T02:02:47.581Z,99909.12
2023-02-19T02:05:25.677Z,99904.17
2023-02-19T02:08:12.875Z,99895.42
2023-02-19T02:10:43.022Z,99890.96
2023-02-19T02:13:11.421Z,99891.69
2023-02-19T02:16:00.304Z,99888.20
2023-02-19T02:18:37.462Z,99883.23
2023-02-19T02:21:30.228Z,99881.73
2023-02-19T02:24:53.284Z,99877.08
2023-02-19T02:27:35.137Z,99881.41
2023-02-19T02:30:10.882Z,99879.37
2023-02-19T02:32:53.604Z,99879.73
2023-02-19T02:35:27.145Z,99878.50
2023-02-19T02:38:01.781Z,99874.77
2023-02-19T02:40:30.862Z,99875.14
2023-02-19T02:43:01.104Z,99875.67
2023-02-19T02:45:35.604Z,99868.36
2023-02-19T02:48:42.198Z,99867.52
2023-02-19T02:51:40.563Z,99868.86
2023-02-19T02:54:33.610Z,99869.90
2023-02-19T02:57:04.582Z,99867.23
2023-02-19T02:59:39.181Z,99865.25
2023-02-19T03:02:15.165Z,99864.40
2023-02-19T03:05:22.813Z,99852.30
2023-02-19T03:08:13.238Z,99848.70
2023-02-19T03:10:47.662Z,99845.55
2023-02-19T03:13:40.834Z,99846.19
2023-02-19T03:16:35.331Z,99854.08
2023-02-19T03:19:20.017Z,99852.00
2023-02-19T03:21:59.291Z,99850.61
2023-02-19T03:24:51.134Z,99838.97
2023-02-19T03:27:22.083Z,99825.85
2023-02-19T03:29:56.797Z,99825.38
2023-02-19T03:32:31.620Z,99823.29
2023-02-19T03:35:12.193Z,99822.48
2023-02-19T03:37:52.949Z,99823.29
2023-02-19T03:40:27.886Z,99821.80
2023-02-19T03:43:11.111Z,99821.15
2023-02-19T03:45:46.203Z,99826.23
2023-02-19T03:48:27.624Z,99826.09
2023-02-19T03:51:28.567Z,99825.46
2023-02-19T03:54:30.853Z,99826.83
2023-02-19T03:57:07.534Z,99829.23
2023-02-19T03:59:51.070Z,99827.72
2023-02-19T04:02:30.017Z,99826.66
2023-02-19T04:05:25.398Z,99821.69
2023-02-19T04:07:58.104Z,99821.54
2023-02-19T04:10:30.350Z,99814.64
2023-02-19T04:13:07.040Z,99820.26
2023-02-19T04:15:37.488Z,99822.58
2023-02-19T04:18:21.300Z,99823.27
2023-02-19T04:20:50.806Z,99818.77
2023-02-19T04:23:24.137Z,99819.30
2023-02-19T04:25:58.586Z,99822.61
2023-02-19T04:28:29.032Z,99812.02
2023-02-19T04:30:57.474Z,99815.33
2023-02-19T04:33:26.305Z,99817.00
2023-02-19T04:35:54.482Z,99810.55
2023-02-19T04:38:22.750Z,99804.33
2023-02-19T04:40:51.746Z,99804.22
2023-02-19T04:43:21.213Z,99807.27
2023-02-19T04:45:49.529Z,99807.23
2023-02-19T04:48:17.567Z,99806.18
2023-02-19T04:50:45.790Z,99805.45
2023-02-19T04:53:14.046Z,99804.67
2023-02-19T04:55:42.331Z,99805.47
2023-02-19T04:58:11.560Z,99805.75
2023-02-19T05:00:40.114Z,99800.33
2023-02-19T05:03:08.385Z,99800.02
2023-02-19T05:05:36.486Z,99795.30
2023-02-19T05:08:04.832Z,99793.24
2023-02-19T05:10:33.835Z,99790.34
2023-02-19T05:13:02.117Z,99789.35
2023-02-19T05:15:30.509Z,99784.54
2023-02-19T05:17:58.870Z,99783.70
2023-02-19T05:20:26.982Z,99780.06
2023-02-19T05:22:55.412Z,99779.31
2023-02-19T05:25:23.592Z,99778.95
2023-02-19T05:28:11.734Z,99782.28
2023-02-19T05:30:40.015Z,99777.86
2023-02-19T05:33:08.312Z,99768.86
2023-02-19T05:35:50.718Z,99761.34
2023-02-19T05:38:19.483Z,99758.68
2023-02-19T05:40:48.175Z,99764.30
2023-02-19T05:43:17.069Z,99762.06
2023-02-19T05:45:45.322Z,99769.70
2023-02-19T05:48:13.520Z,99764.41
2023-02-19T05:50:41.579Z,99760.35
2023-02-19T05:53:15.595Z,99767.44
2023-02-19T05:55:43.674Z,99765.36
2023-02-19T05:58:11.833Z,99762.84
2023-02-19T06:00:40.105Z,99759.34
2023-02-19T06:03:08.391Z,99762.66
2023-02-19T06:05:38.017Z,99764.83
2023-02-19T06:08:06.473Z,99762.92
2023-02-19T06:10:34.763Z,99764.33
2023-02-19T06:13:02.943Z,99759.34
2023-02-19T06:15:31.201Z,99758.91
2023-02-19T06:17:59.728Z,99768.36
2023-02-19T06:20:29.200Z,99772.04
2023-02-19T06:22:57.470Z,99768.80
2023-02-19T06:25:25.849Z,99775.58
2023-02-19T06:27:54.018Z,99777.09
2023-02-19T06:30:22.464Z,99776.23
2023-02-19T06:32:54.127Z,99773.23
2023-02-19T06:35:22.855Z,99778.12
2023-02-19T06:37:51.114Z,99779.76
2023-02-19T06:40:19.403Z,99784.89
2023-02-19T06:42:47.887Z,99786.98
2023-02-19T06:45:16.163Z,99790.70
2023-02-19T06:47:44.440Z,99787.16
2023-02-19T06:50:12.718Z,99791.51
2023-02-19T06:52:41.094Z,99791.70
2023-02-19T06:55:09.480Z,99793.94
2023-02-19T06:57:37.960Z,99801.30
2023-02-19T07:00:07.459Z,99802.60
2023-02-19T07:02:36.554Z,99805.05
2023-02-19T07:05:10.536Z,99812.05
2023-02-19T07:07:38.916Z,99817.41
2023-02-19T07:10:07.600Z,99826.56
2023-02-19T07:12:36.519Z,99827.71
2023-02-19T07:15:09.946Z,99828.52
2023-02-19T07:17:38.399Z,99835.98
2023-02-19T07:20:06.871Z,99838.51
2023-02-19T07:22:35.245Z,99839.35
2023-02-19T07:25:03.738Z,99843.45
2023-02-19T07:27:35.082Z,99851.77
2023-02-19T07:30:04.946Z,99853.45
2023-02-19T07:32:33.195Z,99859.76
2023-02-19T07:35:01.448Z,99866.33
2023-02-19T07:37:29.727Z,99871.89
2023-02-19T07:39:57.885Z,99877.08
2023-02-19T07:42:26.079Z,99879.89
2023-02-19T07:44:54.448Z,99888.11
2023-02-19T07:47:22.826Z,99895.20
2023-02-19T07:49:51.099Z,99903.14
2023-02-19T07:52:22.991Z,99910.69
2023-02-19T07:54:54.428Z,99915.02
2023-02-19T07:57:22.758Z,99919.42
2023-02-19T07:59:51.690Z,99919.20
2023-02-19T08:02:40.153Z,99922.48
2023-02-19T08:05:08.833Z,99928.80
2023-02-19T08:07:37.722Z,99931.55
2023-02-19T08:10:25.642Z,99934.92
2023-02-19T08:13:17.100Z,99945.65
2023-02-19T08:16:16.876Z,99949.86
2023-02-19T08:18:49.566Z,99960.73
2023-02-19T08:21:18.488Z,99967.11
2023-02-19T08:23:47.596Z,99962.20
2023-02-19T08:26:17.130Z,99975.02
2023-02-19T08:28:50.834Z,99979.84
2023-02-19T08:31:20.208Z,99982.98
2023-02-19T08:33:49.049Z,99983.96
2023-02-19T08:36:18.035Z,99986.95
2023-02-19T08:38:46.641Z,99994.77
2023-02-19T08:41:15.927Z,99994.25
2023-02-19T08:43:44.939Z,99998.80
2023-02-19T08:46:14.056Z,99998.73
2023-02-19T08:48:42.616Z,100000.95
2023-02-19T08:51:12.571Z,100006.34
2023-02-19T08:53:42.039Z,100014.01
2023-02-19T08:56:14.109Z,100018.20
2023-02-19T08:58:43.353Z,100026.54
2023-02-19T09:01:14.111Z,100033.52
2023-02-19T09:03:43.540Z,100039.02
2023-02-19T09:06:18.383Z,100043.92
2023-02-19T09:08:47.928Z,100048.48
2023-02-19T09:11:16.996Z,100052.52
2023-02-19T09:13:45.437Z,100053.23
2023-02-19T09:16:14.043Z,100057.14
2023-02-19T09:18:42.731Z,100058.13
2023-02-19T09:21:12.087Z,100062.27
2023-02-19T09:23:41.038Z,100062.39
2023-02-19T09:26:11.635Z,100070.90
2023-02-19T09:28:42.163Z,100074.52
2023-02-19T09:31:16.817Z,100079.44
2023-02-19T09:33:47.117Z,100083.89
2023-02-19T09:36:16.729Z,100089.34
2023-02-19T09:38:45.828Z,100093.63
2023-02-19T09:41:17.065Z,100100.80
2023-02-19T09:43:46.439Z,100106.47
2023-02-19T09:46:23.396Z,100111.46
2023-02-19T09:48:55.106Z,100110.15
2023-02-19T09:51:25.495Z,100117.06
2023-02-19T09:53:56.286Z,100120.14
2023-02-19T09:56:28.130Z,100125.43
2023-02-19T09:58:59.893Z,100126.20
2023-02-19T10:01:34.490Z,100125.80
2023-02-19T10:04:05.465Z,100130.80
2023-02-19T10:06:37.935Z,100138.67
2023-02-19T10:09:27.493Z,100141.19
2023-02-19T10:11:58.867Z,100151.08
2023-02-19T10:14:50.683Z,100152.59
2023-02-19T10:17:25.868Z,100160.20
2023-02-19T10:19:55.240Z,100170.90
2023-02-19T10:22:25.051Z,100170.09
2023-02-19T10:24:56.200Z,100172.03
2023-02-19T10:27:30.478Z,100179.41
2023-02-19T10:30:01.714Z,100182.48
2023-02-19T10:32:31.767Z,100186.45
2023-02-19T10:35:12.265Z,100184.48
2023-02-19T10:37:50.844Z,100192.42
2023-02-19T10:40:28.275Z,100193.34
2023-02-19T10:43:00.014Z,100197.63
2023-02-19T10:45:41.027Z,100195.66
2023-02-19T10:48:26.025Z,100195.20
2023-02-19T10:50:58.444Z,100206.55
2023-02-19T10:53:51.968Z,100207.02
2023-02-19T10:56:26.071Z,100215.41
2023-02-19T10:58:55.482Z,100221.90
2023-02-19T11:01:28.583Z,100218.50
2023-02-19T11:04:18.511Z,100220.68
2023-02-19T11:06:48.066Z,100224.41
2023-02-19T11:09:28.414Z,100228.30
2023-02-19T11:11:58.197Z,100227.13
2023-02-19T11:14:29.476Z,100228.14
2023-02-19T11:17:00.007Z,100234.67
2023-02-19T11:19:43.327Z,100234.52
2023-02-19T11:22:42.126Z,100234.83
2023-02-19T11:25:10.611Z,100235.27
2023-02-19T11:27:58.442Z,100236.95
2023-02-19T11:30:46.268Z,100232.54
2023-02-19T11:33:20.507Z,100230.52
2023-02-19T11:36:15.503Z,100238.66
2023-02-19T11:38:44.881Z,100240.00
2023-02-19T11:41:29.253Z,100240.65
2023-02-19T11:44:13.191Z,100242.16
2023-02-19T11:47:01.966Z,100241.02
2023-02-19T11:49:57.456Z,100241.31
2023-02-19T11:52:31.889Z,100239.52
2023-02-19T11:55:56.705Z,100239.61
2023-02-19T11:58:43.521Z,100241.55
2023-02-19T12:01:31.040Z,100249.98
2023-02-19T12:04:02.677Z,100256.84
2023-02-19T12:07:04.959Z,100265.94
2023-02-19T12:09:43.584Z,100273.58
2023-02-19T12:12:30.580Z,100278.16
2023-02-19T12:15:18.441Z,100281.37
2023-02-19T12:18:17.223Z,100277.44
2023-02-19T12:21:02.682Z,100279.46
2023-02-19T12:23:37.724Z,100285.90
2023-02-19T12:26:35.901Z,100291.41
2023-02-19T12:29:35.230Z,100289.52
2023-02-19T12:32:25.299Z,100291.27
2023-02-19T12:35:19.076Z,100297.98
2023-02-19T12:38:02.823Z,100297.50
2023-02-19T12:40:50.610Z,100297.94
2023-02-19T12:43:22.310Z,100297.98
2023-02-19T12:46:00.903Z,100305.61
2023-02-19T12:48:43.656Z,100316.23
2023-02-19T12:51:23.477Z,100314.55
2023-02-19T12:54:02.010Z,100319.63
2023-02-19T12:56:42.783Z,100329.59
2023-02-19T12:59:14.010Z,100329.30
2023-02-19T13:02:08.643Z,100332.70
2023-02-19T13:04:48.360Z,100339.21
2023-02-19T13:07:37.616Z,100337.41
2023-02-19T13:10:33.380Z,100343.48
2023-02-19T13:13:13.868Z,100343.35
2023-02-19T13:15:45.598Z,100346.41
2023-02-19T13:18:26.964Z,100352.66
2023-02-19T13:20:56.812Z,100351.52
2023-02-19T13:23:49.572Z,100349.27
2023-02-19T13:26:52.951Z,100351.28
2023-02-19T13:29:40.013Z,100350.56
2023-02-19T13:32:19.015Z,100347.39
2023-02-19T13:35:00.756Z,100354.11
2023-02-19T13:37:34.817Z,100349.39
2023-02-19T13:40:39.759Z,100349.09
2023-02-19T13:43:27.489Z,100346.73
2023-02-19T13:46:18.319Z,100354.99
2023-02-19T13:48:47.443Z,100345.06
2023-02-19T13:51:25.188Z,100344.07
2023-02-19T13:53:58.410Z,100354.21
2023-02-19T13:56:39.204Z,100362.73
2023-02-19T13:59:11.541Z,100366.23
2023-02-19T14:02:00.492Z,100368.66
2023-02-19T14:04:52.048Z,100376.52
2023-02-19T14:07:28.279Z,100369.77
2023-02-19T14:09:58.910Z,100378.41
2023-02-19T14:12:37.583Z,100390.05
2023-02-19T14:15:37.642Z,100387.80
2023-02-19T14:18:44.879Z,100392.34
2023-02-19T14:21:26.486Z,100403.31
2023-02-19T14:24:00.572Z,100411.48
2023-02-19T14:26:32.758Z,100411.12
2023-02-19T14:29:02.554Z,100416.91
2023-02-19T14:31:34.323Z,100420.27
2023-02-19T14:34:23.022Z,100424.99
2023-02-19T14:37:02.693Z,100423.13
2023-02-19T14:39:35.319Z,100431.39
2023-02-19T14:42:18.007Z,100429.82
2023-02-19T14:44:51.769Z,100434.57
2023-02-19T14:47:23.254Z,100439.27
2023-02-19T14:49:54.054Z,100441.31
2023-02-19T14:52:45.950Z,100445.54
2023-02-19T14:55:38.293Z,100446.34
2023-02-19T14:58:18.622Z,100455.45
2023-02-19T15:00:47.556Z,100458.29
2023-02-19T15:03:37.757Z,100461.42
2023-02-19T15:06:20.325Z,100470.82
2023-02-19T15:08:52.247Z,100477.11
2023-02-19T15:11:26.776Z,100474.82
2023-02-19T15:14:05.355Z,100474.27
2023-02-19T15:16:36.732Z,100474.02
2023-02-19T15:19:16.934Z,100480.48
2023-02-19T15:21:50.724Z,100479.90
2023-02-19T15:24:19.779Z,100484.14
2023-02-19T15:26:52.190Z,100491.41
2023-02-19T15:29:25.381Z,100488.64
2023-02-19T15:32:01.196Z,100489.52
2023-02-19T15:34:34.050Z,100489.52
2023-02-19T15:37:06.947Z,100493.38
2023-02-19T15:39:41.226Z,100497.84
2023-02-19T15:42:17.973Z,100501.86
2023-02-19T15:44:53.915Z,100505.54
2023-02-19T15:47:29.797Z,100510.05
2023-02-19T15:50:07.669Z,100519.45
2023-02-19T15:52:45.896Z,100522.09
2023-02-19T15:55:26.754Z,100522.01
2023-02-19T15:58:20.729Z,100530.86
2023-02-19T16:01:15.542Z,100532.20
2023-02-19T16:03:44.834Z,100542.31
2023-02-19T16:06:16.820Z,100543.95
2023-02-19T16:09:02.111Z,100550.92
2023-02-19T16:11:39.932Z,100554.55
2023-02-19T16:14:29.898Z,100557.52
2023-02-19T16:17:16.783Z,100562.76
2023-02-19T16:20:14.548Z,100561.22
2023-02-19T16:22:49.102Z,100565.14
2023-02-19T16:25:32.097Z,100568.27
2023-02-19T16:35:40.404Z,100584.75
2023-02-19T16:38:17.170Z,100593.80
2023-02-19T16:40:49.055Z,100604.71
2023-02-19T16:43:38.974Z,100604.71
2023-02-19T16:46:15.662Z,100602.98
2023-02-19T16:48:56.522Z,100603.52
2023-02-19T16:51:27.904Z,100608.40
2023-02-19T16:53:56.971Z,100614.69
2023-02-19T16:56:28.310Z,100621.30
2023-02-19T16:59:02.123Z,100624.02
2023-02-19T17:01:34.454Z,100625.05
2023-02-19T17:04:09.631Z,100631.98
2023-02-19T17:06:42.477Z,100635.02
2023-02-19T17:09:14.046Z,100645.19
2023-02-19T17:11:51.177Z,100647.80
2023-02-19T17:14:21.486Z,100650.29
2023-02-19T17:16:50.890Z,100657.77
2023-02-19T17:19:21.959Z,100665.29
2023-02-19T17:22:00.364Z,100663.63
2023-02-19T17:24:38.124Z,100668.17
2023-02-19T17:27:12.312Z,100667.89
2023-02-19T17:29:41.610Z,100666.18
2023-02-19T17:32:11.622Z,100668.34
2023-02-19T17:34:40.975Z,100665.68
2023-02-19T17:37:10.869Z,100670.60
2023-02-19T17:39:39.859Z,100678.94
2023-02-19T17:42:08.752Z,100681.69
2023-02-19T17:44:37.936Z,100681.48
2023-02-19T17:47:15.786Z,100686.33
2023-02-19T17:49:51.606Z,100692.55
2023-02-19T17:55:04.422Z,100698.14
2023-02-19T17:57:34.632Z,100711.96
2023-02-19T18:00:05.663Z,100713.84
2023-02-19T18:02:41.853Z,100709.61
2023-02-19T18:05:11.283Z,100709.13
2023-02-19T18:07:40.742Z,100718.10
2023-02-19T18:10:09.846Z,100719.59
2023-02-19T18:12:39.425Z,100721.55
2023-02-19T18:15:09.896Z,100723.65
2023-02-19T18:17:38.390Z,100726.63
2023-02-19T18:20:09.580Z,100727.75
2023-02-19T18:22:41.888Z,100726.73
2023-02-19T18:25:11.435Z,100731.11
2023-02-19T18:27:40.279Z,100732.98
2023-02-19T18:30:09.986Z,100741.23
2023-02-19T18:32:39.303Z,100748.96
2023-02-19T18:35:08.690Z,100745.91
2023-02-19T18:37:37.826Z,100751.61
2023-02-19T18:40:08.443Z,100761.41
2023-02-19T18:42:37.835Z,100760.79
2023-02-19T18:45:08.026Z,100760.52
2023-02-19T18:47:37.467Z,100761.65
2023-02-19T18:50:08.549Z,100767.30
2023-02-19T18:52:37.085Z,100766.42
2023-02-19T18:55:06.311Z,100771.30
2023-02-19T18:57:35.183Z,100770.45
2023-02-19T19:00:06.807Z,100771.83
2023-02-19T19:02:48.838Z,100765.51
2023-02-19T19:05:23.790Z,100768.89
2023-02-19T19:07:57.902Z,100772.19
2023-02-19T19:10:27.783Z,100778.45
2023-02-19T19:12:56.735Z,100772.53
2023-02-19T19:15:27.559Z,100770.17
2023-02-19T19:17:57.427Z,100764.34
2023-02-19T19:20:27.578Z,100765.75
2023-02-19T19:22:59.933Z,100771.20
2023-02-19T19:25:30.782Z,100778.23
2023-02-19T19:28:13.898Z,100783.11
2023-02-19T19:30:44.062Z,100784.86
2023-02-19T19:33:17.619Z,100784.58
2023-02-19T19:39:10.444Z,100791.67
2023-02-19T19:41:45.903Z,100801.41
2023-02-19T19:44:16.745Z,100799.01
2023-02-19T19:46:55.816Z,100796.58
2023-02-19T19:49:28.478Z,100796.65
2023-02-19T19:52:02.616Z,100803.36
2023-02-19T19:54:35.861Z,100805.84
2023-02-19T19:57:05.073Z,100812.25
2023-02-19T19:59:48.508Z,100817.10
2023-02-19T20:02:18.881Z,100815.05
2023-02-19T20:04:48.140Z,100820.77
2023-02-19T20:07:17.975Z,100823.59
2023-02-19T20:09:48.738Z,100816.84
2023-02-19T20:12:18.328Z,100820.95
2023-02-19T20:14:48.712Z,100821.54
2023-02-19T20:17:18.194Z,100820.87
2023-02-19T20:19:48.142Z,100826.26
2023-02-19T20:22:17.558Z,100827.44
2023-02-19T20:24:52.621Z,100834.04
2023-02-19T20:27:23.365Z,100836.33
2023-02-19T20:29:52.894Z,100831.03
2023-02-19T20:32:23.005Z,100836.78
2023-02-19T20:34:53.452Z,100838.28
2023-02-19T20:37:24.023Z,100839.44
2023-02-19T20:39:54.017Z,100840.48
2023-02-19T20:42:24.148Z,100838.70
2023-02-19T20:44:57.075Z,100844.90
2023-02-19T20:47:31.128Z,100845.73
2023-02-19T20:50:03.520Z,100848.07
2023-02-19T20:52:35.484Z,100850.64
2023-02-19T20:55:10.187Z,100853.58
2023-02-19T20:57:41.935Z,100861.89
2023-02-19T21:00:14.644Z,100867.35
2023-02-19T21:02:47.042Z,100870.34
2023-02-19T21:05:18.491Z,100871.98
2023-02-19T21:07:48.828Z,100878.60
2023-02-19T21:10:19.044Z,100882.15
2023-02-19T21:12:50.991Z,100879.77
2023-02-19T21:15:21.092Z,100881.08
2023-02-19T21:17:51.715Z,100884.54
2023-02-19T21:20:21.821Z,100888.20
2023-02-19T21:22:52.410Z,100893.20
2023-02-19T21:25:23.408Z,100898.48
2023-02-19T21:27:54.754Z,100895.73
2023-02-19T21:30:24.667Z,100901.73
2023-02-19T21:32:54.572Z,100906.84
2023-02-19T21:35:27.160Z,100906.29
2023-02-19T21:37:58.079Z,100902.23
2023-02-19T21:40:30.835Z,100904.25
2023-02-19T21:43:02.559Z,100904.81
2023-02-19T21:45:32.664Z,100908.38
2023-02-19T21:48:05.181Z,100911.23
2023-02-19T21:50:56.999Z,100913.55
2023-02-19T21:53:30.592Z,100919.69
2023-02-19T21:56:07.746Z,100922.38
2023-02-19T21:58:38.312Z,100933.19
2023-02-19T22:01:07.504Z,100935.08
2023-02-19T22:03:37.479Z,100937.13
2023-02-19T22:06:07.160Z,100937.17
2023-02-19T22:08:37.277Z,100935.75
2023-02-19T22:11:08.149Z,100939.85
2023-02-19T22:13:37.246Z,100944.33
2023-02-19T22:16:07.374Z,100943.97
2023-02-19T22:18:36.455Z,100945.81
2023-02-19T22:21:06.951Z,100951.41
2023-02-19T22:23:39.005Z,100949.66
2023-02-19T22:26:10.743Z,100944.20
2023-02-19T22:28:39.791Z,100944.54
2023-02-19T22:31:09.701Z,100941.27
2023-02-19T22:33:41.806Z,100946.82
2023-02-19T22:36:22.991Z,100942.79
2023-02-19T22:38:53.483Z,100934.39
2023-02-19T22:41:23.336Z,100935.13
2023-02-19T22:43:56.060Z,100929.23
2023-02-19T22:46:27.734Z,100928.05
2023-02-19T22:48:58.286Z,100934.38
2023-02-19T22:51:26.994Z,100939.54
2023-02-19T22:53:57.830Z,100937.39
2023-02-19T22:56:28.205Z,100938.70
2023-02-19T22:58:58.400Z,100940.55
2023-02-19T23:01:26.947Z,100939.58
2023-02-19T23:03:58.400Z,100935.95
2023-02-19T23:06:30.281Z,100938.47
2023-02-19T23:09:02.400Z,100942.41
2023-02-19T23:11:33.507Z,100939.73
2023-02-19T23:14:02.489Z,100938.45
2023-02-19T23:16:35.960Z,100939.71
2023-02-19T23:19:11.572Z,100937.63
2023-02-19T23:21:42.553Z,100931.79
2023-02-19T23:24:12.124Z,100928.20
2023-02-19T23:26:45.462Z,100927.98
2023-02-19T23:29:24.370Z,100927.34
2023-02-19T23:31:54.863Z,100925.38
2023-02-19T23:34:28.677Z,100921.17
2023-02-19T23:36:59.746Z,100917.95
2023-02-19T23:39:30.586Z,100914.13
2023-02-19T23:41:59.895Z,100915.69
2023-02-19T23:44:28.581Z,100915.08
2023-02-19T23:47:00.137Z,100911.08
2023-02-19T23:49:28.613Z,100911.09
2023-02-19T23:51:59.966Z,100906.31
2023-02-19T23:54:28.527Z,100901.73
2023-02-19T23:56:58.250Z,100893.95
2023-02-19T23:59:26.949Z,100894.06
